Time;durP1;ratioP1;P1;durP2;ratioP2;P2;SDS_P1;SDS_P2;PMS_P1;PMS_P2;Temp;Humidity;BMP_temperature;BMP_pressure;BME280_temperature;BME280_humidity;BME280_pressure;Samples;Min_cycle;Max_cycle;Signal;HPM_P1;HPM_P2
2023/03/31 00:00:24;;;;;;;30.58;4.25;;;;;;;13.62;83.81;99984.19;5063645;28;20044;-62
2023/03/31 00:02:53;;;;;;;26.08;4.50;;;;;;;13.64;83.77;99959.75;5059004;28;20067;-62
2023/03/31 00:05:23;;;;;;;25.55;4.22;;;;;;;13.45;84.80;99988.88;5076353;28;20075;-61
2023/03/31 00:07:59;;;;;;;26.20;4.38;;;;;;;13.56;85.05;99992.75;5077515;28;20048;-62
2023/03/31 00:10:32;;;;;;;24.42;4.18;;;;;;;13.58;85.45;99995.19;5076918;28;20064;-63
2023/03/31 00:13:01;;;;;;;18.33;4.18;;;;;;;13.72;84.50;99980.97;5068013;28;20044;-63
2023/03/31 00:15:28;;;;;;;25.35;4.15;;;;;;;13.44;86.39;99964.34;5059103;28;20068;-62
2023/03/31 00:17:59;;;;;;;27.48;4.43;;;;;;;13.67;86.12;99906.50;5074636;28;20056;-63
2023/03/31 00:20:27;;;;;;;27.35;4.72;;;;;;;13.56;85.65;99898.69;5076761;28;20132;-63
2023/03/31 00:22:56;;;;;;;23.50;4.38;;;;;;;13.23;87.21;99898.13;5073350;28;20435;-63
2023/03/31 00:25:24;;;;;;;28.30;4.53;;;;;;;13.13;88.34;99872.91;5074742;28;20056;-63
2023/03/31 00:27:51;;;;;;;24.85;4.30;;;;;;;13.43;86.88;99852.06;5077044;28;20052;-65
2023/03/31 00:30:19;;;;;;;19.02;4.18;;;;;;;13.40;86.31;99858.31;5077370;28;20048;-63
2023/03/31 00:32:46;;;;;;;23.45;3.90;;;;;;;13.39;86.82;99840.91;5074226;28;20049;-63
2023/03/31 00:35:14;;;;;;;24.23;3.95;;;;;;;13.34;85.96;99823.75;5075681;28;20056;-63
2023/03/31 00:37:42;;;;;;;18.65;3.75;;;;;;;13.29;86.07;99822.06;5058324;28;20056;-63
2023/03/31 00:40:10;;;;;;;21.75;4.18;;;;;;;13.26;85.85;99827.50;5077294;28;20537;-62
2023/03/31 00:42:42;;;;;;;20.90;3.67;;;;;;;13.50;85.53;99841.19;5072964;28;20071;-64
2023/03/31 00:45:12;;;;;;;23.52;4.10;;;;;;;13.27;85.53;99827.13;5076051;28;20056;-63
2023/03/31 00:47:40;;;;;;;;;;;;;;;13.37;84.46;99823.84;5075927;28;20045;-63
2023/03/31 00:50:17;;;;;;;20.98;3.42;;;;;;;13.46;83.75;99816.19;5058760;28;20263;-63
2023/03/31 00:52:47;;;;;;;20.88;3.72;;;;;;;13.31;83.32;99800.38;5074568;28;20049;-62
2023/03/31 00:55:17;;;;;;;19.42;3.45;;;;;;;13.58;82.15;99793.22;5075522;28;20124;-62
2023/03/31 00:57:45;;;;;;;22.27;3.92;;;;;;;13.70;80.84;99795.91;5058147;28;20055;-62
2023/03/31 01:00:17;;;;;;;21.17;3.72;;;;;;;13.39;80.71;99791.09;5075711;28;20048;-62
2023/03/31 01:02:51;;;;;;;19.00;3.28;;;;;;;13.40;81.20;99795.50;5072854;28;20048;-62
2023/03/31 01:05:22;;;;;;;22.52;3.80;;;;;;;13.50;80.80;99763.72;5058991;28;20056;-67
2023/03/31 01:07:51;;;;;;;17.00;3.13;;;;;;;13.50;79.67;99767.31;5075938;28;20526;-68
2023/03/31 01:10:20;;;;;;;17.40;3.47;;;;;;;13.53;79.44;99774.88;5057872;28;20053;-70
2023/03/31 01:12:51;;;;;;;12.05;2.75;;;;;;;13.48;79.05;99761.31;5074277;28;20049;-67
2023/03/31 01:15:19;;;;;;;16.65;3.33;;;;;;;13.57;78.94;99767.50;5075066;28;20048;-62
2023/03/31 01:17:49;;;;;;;15.27;2.80;;;;;;;13.62;78.33;99765.59;5073882;28;20494;-63
2023/03/31 01:20:26;;;;;;;18.48;3.25;;;;;;;13.49;77.99;99759.38;5074156;28;20127;-69
2023/03/31 01:23:13;;;;;;;15.75;2.78;;;;;;;13.64;78.83;99747.50;5075087;28;20063;-67
2023/03/31 01:26:20;;;;;;;12.68;3.08;;;;;;;13.66;78.15;99736.88;5074920;28;20051;-66
2023/03/31 01:29:00;;;;;;;16.67;2.65;;;;;;;13.78;78.03;99752.56;5074155;28;20056;-68
2023/03/31 01:31:55;;;;;;;14.18;2.70;;;;;;;13.72;78.22;99742.94;5053820;28;20052;-66
2023/03/31 01:34:44;;;;;;;12.98;2.88;;;;;;;13.71;78.71;99735.78;5055935;28;20084;-68
2023/03/31 01:37:50;;;;;;;15.75;3.08;;;;;;;13.63;79.06;99734.00;5071351;28;20480;-67
2023/03/31 01:40:34;;;;;;;12.05;2.80;;;;;;;13.64;79.35;99730.88;4959006;28;20046;-67
2023/03/31 01:43:08;;;;;;;14.20;2.65;;;;;;;13.42;80.08;99724.00;4975263;28;20458;-68
2023/03/31 01:45:56;;;;;;;11.70;2.45;;;;;;;13.41;80.57;99718.84;5021840;28;20060;-67
2023/03/31 01:49:01;;;;;;;11.80;2.65;;;;;;;13.74;80.02;99705.44;5057778;28;20086;-67
2023/03/31 01:51:33;;;;;;;14.40;3.13;;;;;;;13.89;78.18;99689.97;5056011;28;20487;-67
2023/03/31 01:54:04;;;;;;;11.68;2.80;;;;;;;13.75;79.10;99679.38;5058507;28;20048;-67
2023/03/31 01:56:46;;;;;;;12.18;2.75;;;;;;;13.73;79.04;99676.16;5072827;28;20064;-67
2023/03/31 01:59:17;;;;;;;14.15;3.03;;;;;;;13.61;79.45;99658.84;5047196;28;20048;-67
2023/03/31 02:02:12;;;;;;;13.60;3.00;;;;;;;13.51;80.23;99676.81;5080168;28;20041;-67
2023/03/31 02:05:00;;;;;;;15.63;3.40;;;;;;;13.55;80.44;99672.97;5047575;28;20052;-67
2023/03/31 02:07:38;;;;;;;16.33;3.63;;;;;;;13.50;80.62;99662.19;5059175;28;20052;-66
2023/03/31 02:10:09;;;;;;;14.23;3.15;;;;;;;13.68;80.60;99650.72;5062009;28;20056;-66
2023/03/31 02:12:39;;;;;;;16.13;3.38;;;;;;;13.91;79.60;99659.97;5062111;28;20044;-66
2023/03/31 02:15:09;;;;;;;15.73;2.88;;;;;;;13.90;78.94;99656.41;5081495;28;20052;-66
2023/03/31 02:17:39;;;;;;;13.93;3.22;;;;;;;13.98;78.73;99649.84;5075768;28;20055;-68
2023/03/31 02:20:14;;;;;;;13.82;2.75;;;;;;;13.89;79.47;99648.44;5061422;28;20049;-66
2023/03/31 02:22:44;;;;;;;15.88;3.83;;;;;;;14.00;78.78;99644.75;5048162;28;20044;-66
2023/03/31 02:25:16;;;;;;;18.67;3.50;;;;;;;14.00;77.74;99641.19;5055019;28;20056;-64
2023/03/31 02:27:49;;;;;;;14.63;2.70;;;;;;;13.85;78.20;99640.06;5079507;28;20057;-62
2023/03/31 02:30:16;;;;;;;13.38;3.20;;;;;;;13.91;78.57;99635.06;5080603;28;20058;-62
2023/03/31 02:32:45;;;;;;;18.20;3.65;;;;;;;13.73;79.19;99623.59;5081032;28;20361;-63
2023/03/31 02:35:18;;;;;;;;;;;;;;;13.81;79.34;99621.78;5081350;28;20075;-66
2023/03/31 02:37:45;;;;;;;15.45;3.40;;;;;;;13.87;78.80;99612.84;5077384;28;19920;-65
2023/03/31 02:40:19;;;;;;;13.38;3.10;;;;;;;13.79;78.85;99602.75;5080678;28;20052;-66
2023/03/31 02:42:48;;;;;;;16.38;4.07;;;;;;;13.79;79.99;99602.75;5081685;28;20488;-65
2023/03/31 02:45:38;;;;;;;15.15;3.47;;;;;;;13.98;78.74;99585.38;5080766;28;20064;-67
2023/03/31 02:48:23;;;;;;;18.73;3.70;;;;;;;14.06;77.81;99576.03;5079280;28;20048;-62
2023/03/31 02:51:00;;;;;;;15.52;3.25;;;;;;;13.82;79.44;99554.19;5079426;28;20045;-62
2023/03/31 02:53:53;;;;;;;12.77;3.35;;;;;;;13.89;79.05;99555.16;5081400;28;20057;-67
2023/03/31 02:56:47;;;;;;;12.55;2.42;;;;;;;13.84;79.23;99554.63;5079408;28;20049;-62
2023/03/31 02:59:23;;;;;;;13.27;3.17;;;;;;;13.90;79.11;99540.13;5080107;28;20053;-67
2023/03/31 03:01:56;;;;;;;20.00;3.95;;;;;;;13.98;78.60;99544.63;5078524;28;20052;-68
2023/03/31 03:04:33;;;;;;;21.83;4.03;;;;;;;13.76;79.29;99536.25;5080014;28;20051;-68
2023/03/31 03:07:38;;;;;;;19.92;3.58;;;;;;;14.06;77.74;99537.28;5079322;28;20056;-68
2023/03/31 03:10:09;;;;;;;14.70;2.75;;;;;;;13.68;79.21;99534.50;5078513;28;20483;-68
2023/03/31 03:12:39;;;;;;;16.92;3.45;;;;;;;13.69;79.44;99528.59;5064339;28;20056;-63
2023/03/31 03:15:09;;;;;;;15.93;3.33;;;;;;;13.93;78.73;99531.09;5057421;28;20048;-68
2023/03/31 03:17:40;;;;;;;23.63;3.90;;;;;;;13.76;79.05;99541.78;5055518;28;20053;-68
2023/03/31 03:20:08;;;;;;;17.45;3.53;;;;;;;13.79;78.60;99532.78;5057608;28;20048;-61
2023/03/31 03:22:37;;;;;;;23.08;4.10;;;;;;;13.70;79.28;99529.41;5039632;28;20079;-62
2023/03/31 03:25:10;;;;;;;23.42;4.97;;;;;;;13.71;78.51;99533.78;5071629;28;20388;-61
2023/03/31 03:27:38;;;;;;;22.50;4.40;;;;;;;13.73;78.89;99525.91;5077281;28;20052;-61
2023/03/31 03:30:08;;;;;;;22.02;4.85;;;;;;;13.57;79.15;99512.13;5078760;28;20491;-61
2023/03/31 03:32:36;;;;;;;20.30;4.57;;;;;;;13.62;78.90;99513.81;5075780;28;20408;-61
2023/03/31 03:35:05;;;;;;;21.60;3.90;;;;;;;13.70;78.50;99508.09;5078541;28;20068;-63
2023/03/31 03:37:33;;;;;;;22.02;4.85;;;;;;;13.83;77.98;99503.19;5076944;28;20518;-62
2023/03/31 03:40:02;;;;;;;18.48;4.10;;;;;;;13.90;77.20;99500.56;5078607;28;20048;-62
2023/03/31 03:42:30;;;;;;;21.92;4.07;;;;;;;13.92;76.42;99503.78;5076890;28;20491;-63
2023/03/31 03:44:57;;;;;;;23.75;5.00;;;;;;;13.73;77.56;99495.47;5076519;28;20064;-68
2023/03/31 03:47:24;;;;;;;18.17;3.85;;;;;;;13.75;77.68;99498.69;5075892;28;20056;-67
2023/03/31 03:49:52;;;;;;;22.02;3.90;;;;;;;13.67;77.86;99494.16;5078437;28;20052;-68
2023/03/31 03:52:20;;;;;;;22.83;3.92;;;;;;;13.79;78.01;99488.50;5076358;28;20075;-68
2023/03/31 03:54:47;;;;;;;20.50;4.55;;;;;;;13.85;76.71;99484.25;5078133;28;20053;-69
2023/03/31 03:57:15;;;;;;;19.98;4.50;;;;;;;13.63;77.95;99479.44;5075355;28;20056;-62
2023/03/31 03:59:44;;;;;;;22.95;4.75;;;;;;;13.67;78.71;99478.34;5075095;28;20051;-62
2023/03/31 04:02:11;;;;;;;24.25;4.63;;;;;;;13.68;78.19;99462.56;5075991;28;20403;-62
2023/03/31 04:04:39;;;;;;;23.25;4.75;;;;;;;13.65;78.29;99457.75;5076767;28;20048;-66
2023/03/31 04:07:06;;;;;;;21.73;4.47;;;;;;;13.67;78.12;99458.19;5076535;28;20055;-67
2023/03/31 04:09:33;;;;;;;24.88;5.25;;;;;;;13.46;78.70;99455.75;5075107;28;20064;-67
2023/03/31 04:12:01;;;;;;;28.55;4.78;;;;;;;13.67;78.51;99445.16;5072846;28;20060;-67
2023/03/31 04:14:28;;;;;;;22.08;4.38;;;;;;;13.69;78.05;99447.53;5077786;28;20400;-68
2023/03/31 04:16:57;;;;;;;20.65;4.68;;;;;;;13.82;77.53;99449.81;5074914;28;20052;-67
2023/03/31 04:19:26;;;;;;;25.83;5.10;;;;;;;13.92;76.64;99453.94;5075807;28;20059;-68
2023/03/31 04:22:01;;;;;;;28.27;5.38;;;;;;;13.82;76.56;99457.31;5075620;28;20056;-68
2023/03/31 04:24:31;;;;;;;19.55;4.70;;;;;;;13.91;76.78;99452.34;5070848;28;20049;-68
2023/03/31 04:26:59;;;;;;;26.48;6.03;;;;;;;13.87;76.00;99443.97;5071336;28;20411;-68
2023/03/31 04:29:27;;;;;;;21.92;4.72;;;;;;;13.93;75.85;99452.78;5077717;28;20047;-67
2023/03/31 04:31:57;;;;;;;24.63;5.15;;;;;;;13.90;75.43;99437.69;5076092;28;20446;-67
2023/03/31 04:34:33;;;;;;;31.45;6.80;;;;;;;13.60;76.22;99441.44;5072173;28;20456;-68
2023/03/31 04:37:02;;;;;;;28.77;4.97;;;;;;;13.76;76.14;99440.19;5073376;28;20060;-69
2023/03/31 04:39:29;;;;;;;33.70;6.90;;;;;;;13.79;75.83;99431.16;5077701;28;20048;-67
2023/03/31 04:41:58;;;;;;;33.53;6.40;;;;;;;13.77;75.54;99449.31;5075961;28;20064;-67
2023/03/31 04:44:31;;;;;;;30.77;6.53;;;;;;;13.82;74.72;99440.69;5053627;28;20041;-67
2023/03/31 04:47:01;;;;;;;30.70;5.70;;;;;;;13.83;75.10;99453.38;5069183;28;20051;-68
2023/03/31 04:49:32;;;;;;;40.17;6.80;;;;;;;13.71;75.18;99453.50;5075949;28;20048;-68
2023/03/31 04:52:00;;;;;;;32.25;5.85;;;;;;;13.88;73.73;99451.09;5075591;28;20487;-67
2023/03/31 04:54:27;;;;;;;37.83;6.72;;;;;;;13.91;73.78;99455.94;5074340;28;20404;-67
2023/03/31 04:56:55;;;;;;;31.10;6.68;;;;;;;13.68;73.98;99444.00;5075608;28;20803;-69
2023/03/31 04:59:22;;;;;;;38.53;6.78;;;;;;;13.76;73.36;99445.72;5076037;28;20056;-67
2023/03/31 05:01:49;;;;;;;35.60;6.53;;;;;;;13.75;73.76;99432.25;5069132;28;20056;-67
2023/03/31 05:04:17;;;;;;;31.73;6.63;;;;;;;13.80;73.62;99438.31;5076614;28;20048;-70
2023/03/31 05:06:44;;;;;;;38.03;6.88;;;;;;;13.69;72.62;99440.06;5073552;28;20056;-67
2023/03/31 05:09:11;;;;;;;34.13;6.70;;;;;;;13.70;72.78;99444.44;5066601;28;20048;-67
2023/03/31 05:11:39;;;;;;;31.48;6.43;;;;;;;13.89;72.47;99446.38;5074665;28;20459;-67
2023/03/31 05:14:10;;;;;;;40.72;6.20;;;;;;;13.91;71.01;99444.84;5076597;28;20162;-67
2023/03/31 05:16:37;;;;;;;39.13;6.63;;;;;;;13.63;70.90;99429.66;5074826;28;20052;-66
2023/03/31 05:19:04;;;;;;;35.13;7.50;;;;;;;13.78;71.19;99420.44;5059810;28;20044;-66
2023/03/31 05:21:32;;;;;;;32.33;6.75;;;;;;;13.80;70.55;99418.13;5053703;28;20060;-67
2023/03/31 05:23:59;;;;;;;37.85;6.53;;;;;;;13.83;70.32;99425.69;5060022;28;20048;-67
2023/03/31 05:26:26;;;;;;;36.65;7.20;;;;;;;13.98;70.06;99424.81;5064569;28;20044;-67
2023/03/31 05:28:54;;;;;;;37.85;7.22;;;;;;;13.88;70.29;99428.19;5075460;28;20140;-67
2023/03/31 05:31:21;;;;;;;31.33;6.75;;;;;;;14.17;69.53;99420.03;5074901;28;20037;-67
2023/03/31 05:33:49;;;;;;;44.72;7.55;;;;;;;13.95;69.58;99408.91;5075443;28;20060;-66
2023/03/31 05:36:17;;;;;;;34.85;6.80;;;;;;;13.87;70.17;99404.41;5072718;28;20523;-67
2023/03/31 05:38:46;;;;;;;49.53;7.82;;;;;;;13.78;70.03;99401.88;5076345;28;20056;-66
2023/03/31 05:41:15;;;;;;;33.03;6.03;;;;;;;13.80;69.28;99404.28;5074820;28;20047;-66
2023/03/31 05:43:43;;;;;;;41.00;7.38;;;;;;;13.80;69.10;99415.34;5076210;28;20530;-67
2023/03/31 05:46:10;;;;;;;42.25;7.40;;;;;;;13.71;69.41;99415.59;5074866;28;20045;-68
2023/03/31 05:48:38;;;;;;;40.90;7.15;;;;;;;14.01;68.63;99402.72;5074511;28;20080;-67
2023/03/31 05:51:05;;;;;;;37.30;6.28;;;;;;;13.85;69.32;99403.97;5074430;28;20048;-67
2023/03/31 05:53:32;;;;;;;44.83;7.28;;;;;;;13.73;68.99;99412.44;5073621;28;20063;-66
2023/03/31 05:56:02;;;;;;;37.35;7.10;;;;;;;13.70;69.15;99413.19;5059951;28;20147;-67
2023/03/31 05:58:30;;;;;;;30.92;6.97;;;;;;;14.02;68.58;99412.63;5073766;28;20059;-69
2023/03/31 06:01:06;;;;;;;32.60;7.47;;;;;;;13.96;69.01;99410.53;5074269;28;20052;-68
2023/03/31 06:03:36;;;;;;;39.58;6.80;;;;;;;14.02;68.59;99428.41;5075742;28;20605;-67
2023/03/31 06:06:05;;;;;;;41.25;6.30;;;;;;;13.64;70.23;99423.75;5072788;28;20063;-67
2023/03/31 06:08:33;;;;;;;31.42;6.55;;;;;;;13.78;69.35;99425.97;5074638;28;20064;-66
2023/03/31 06:11:06;;;;;;;38.13;7.60;;;;;;;13.75;69.33;99427.53;5071439;28;20057;-67
2023/03/31 06:13:35;;;;;;;43.05;7.70;;;;;;;13.75;69.91;99415.66;5073931;28;20060;-67
2023/03/31 06:16:03;;;;;;;35.47;7.18;;;;;;;13.76;70.16;99406.97;5073445;28;20543;-67
2023/03/31 06:18:32;;;;;;;33.00;6.95;;;;;;;13.72;69.52;99410.84;5073116;28;20057;-67
2023/03/31 06:21:00;;;;;;;34.67;7.17;;;;;;;13.72;69.24;99417.16;5064915;28;20048;-67
2023/03/31 06:23:27;;;;;;;40.22;8.20;;;;;;;14.05;68.12;99420.19;5057543;28;20052;-68
2023/03/31 06:26:03;;;;;;;41.42;7.55;;;;;;;14.16;67.20;99401.81;5056725;28;20048;-66
2023/03/31 06:28:30;;;;;;;43.42;8.20;;;;;;;13.99;67.09;99409.78;5063852;28;20052;-66
2023/03/31 06:31:04;;;;;;;33.33;7.00;;;;;;;14.03;67.59;99421.72;5072136;28;20415;-68
2023/03/31 06:33:32;;;;;;;38.92;7.53;;;;;;;14.07;67.53;99415.09;5075646;28;20048;-67
2023/03/31 06:36:02;;;;;;;39.13;6.55;;;;;;;14.01;68.34;99426.84;5071534;28;20060;-67
2023/03/31 06:38:31;;;;;;;38.90;7.22;;;;;;;14.08;68.01;99425.00;5073978;28;20060;-66
2023/03/31 06:40:59;;;;;;;39.65;8.27;;;;;;;14.25;66.74;99424.53;5070087;28;20036;-66
2023/03/31 06:43:26;;;;;;;44.75;8.27;;;;;;;14.16;66.38;99420.38;5060099;28;20079;-67
2023/03/31 06:45:54;;;;;;;33.88;7.00;;;;;;;14.18;66.94;99431.88;5063159;28;20049;-69
2023/03/31 06:48:24;;;;;;;37.17;7.10;;;;;;;14.27;67.02;99427.75;5066569;28;20041;-67
2023/03/31 06:50:57;;;;;;;33.05;6.72;;;;;;;14.39;67.39;99449.72;5064000;28;20407;-65
2023/03/31 06:53:25;;;;;;;34.20;6.68;;;;;;;14.68;66.56;99434.34;5047020;28;20077;-66
2023/03/31 06:55:52;;;;;;;32.67;7.35;;;;;;;14.60;65.98;99435.44;5070014;28;20040;-65
2023/03/31 06:58:20;;;;;;;32.35;6.18;;;;;;;14.93;66.43;99437.53;5068695;28;20040;-65
2023/03/31 07:00:48;;;;;;;34.58;6.20;;;;;;;15.13;66.91;99430.72;5064302;28;20049;-66
2023/03/31 07:03:17;;;;;;;33.92;6.85;;;;;;;15.13;63.70;99427.94;5065456;28;20045;-68
2023/03/31 07:05:49;;;;;;;33.97;6.30;;;;;;;15.21;63.57;99419.34;5072003;28;20428;-66
2023/03/31 07:08:17;;;;;;;36.22;7.50;;;;;;;14.80;63.56;99425.06;5062796;28;20048;-65
2023/03/31 07:10:47;;;;;;;32.25;7.03;;;;;;;15.22;62.48;99420.13;5064702;28;20491;-66
2023/03/31 07:13:15;;;;;;;27.60;6.10;;;;;;;15.20;62.66;99423.25;5066330;28;20060;-67
2023/03/31 07:15:43;;;;;;;40.30;7.20;;;;;;;14.82;62.95;99419.94;5073107;28;20487;-67
2023/03/31 07:18:11;;;;;;;34.50;6.70;;;;;;;14.59;63.85;99426.31;5056243;28;20052;-67
2023/03/31 07:20:38;;;;;;;34.05;6.78;;;;;;;14.44;65.17;99415.38;5061496;28;20404;-67
2023/03/31 07:23:07;;;;;;;41.75;7.95;;;;;;;14.55;64.89;99421.88;5063823;28;20059;-67
2023/03/31 07:25:35;;;;;;;29.33;6.07;;;;;;;14.40;64.86;99428.38;5067159;28;20067;-67
2023/03/31 07:28:03;;;;;;;34.45;5.97;;;;;;;14.22;65.51;99446.59;5073650;28;20049;-66
2023/03/31 07:30:32;;;;;;;23.40;5.65;;;;;;;14.33;65.48;99445.66;5066701;28;20049;-67
2023/03/31 07:33:00;;;;;;;23.40;5.68;;;;;;;14.53;65.12;99440.84;5074199;28;20067;-67
2023/03/31 07:35:27;;;;;;;23.75;5.60;;;;;;;14.64;64.97;99433.53;5069821;28;20066;-67
2023/03/31 07:37:57;;;;;;;25.30;5.00;;;;;;;14.40;65.44;99418.06;5066920;28;20055;-68
2023/03/31 07:40:27;;;;;;;28.27;6.03;;;;;;;14.28;65.69;99443.19;5063142;28;20057;-67
2023/03/31 07:42:54;;;;;;;23.38;5.72;;;;;;;14.29;65.69;99444.00;5069500;28;20049;-66
2023/03/31 07:45:24;;;;;;;30.17;6.10;;;;;;;14.58;65.51;99433.03;5073773;28;20052;-67
2023/03/31 07:47:51;;;;;;;26.98;5.40;;;;;;;14.39;65.39;99440.59;5070399;28;20060;-67
2023/03/31 07:50:20;;;;;;;32.28;6.97;;;;;;;14.54;65.05;99445.22;5071146;28;20048;-65
2023/03/31 07:52:50;;;;;;;33.65;6.07;;;;;;;14.72;64.57;99440.78;5088443;28;20053;-66
2023/03/31 07:55:18;;;;;;;34.95;7.25;;;;;;;14.84;64.26;99443.34;5063391;28;20055;-66
2023/03/31 07:57:46;;;;;;;31.10;6.82;;;;;;;14.97;64.02;99450.28;5067868;28;20041;-65
2023/03/31 08:00:15;;;;;;;33.45;5.63;;;;;;;15.27;63.84;99431.69;5070796;28;20045;-66
2023/03/31 08:02:42;;;;;;;32.92;6.38;;;;;;;15.03;63.77;99446.00;5068902;28;20033;-66
2023/03/31 08:05:11;;;;;;;30.17;5.15;;;;;;;14.92;64.09;99439.53;5074287;28;20056;-66
2023/03/31 08:07:41;;;;;;;25.65;5.65;;;;;;;15.06;64.09;99428.63;5070755;28;20045;-67
2023/03/31 08:10:11;;;;;;;27.15;6.05;;;;;;;14.90;64.60;99439.09;5055735;28;20543;-67
2023/03/31 08:12:38;;;;;;;23.92;5.32;;;;;;;15.11;63.94;99436.63;5066593;28;20049;-65
2023/03/31 08:15:07;;;;;;;27.08;6.05;;;;;;;15.13;64.08;99439.81;5075908;28;20067;-66
2023/03/31 08:17:34;;;;;;;32.15;6.10;;;;;;;14.83;64.87;99447.28;5075071;28;20056;-66
2023/03/31 08:20:05;;;;;;;29.60;5.97;;;;;;;14.74;65.65;99459.78;5068016;28;20400;-66
2023/03/31 08:22:35;;;;;;;24.88;6.22;;;;;;;14.87;65.52;99447.34;5069273;28;20056;-65
2023/03/31 08:25:04;;;;;;;28.67;6.25;;;;;;;15.08;65.00;99442.13;5068068;28;20048;-65
2023/03/31 08:27:33;;;;;;;35.55;5.82;;;;;;;15.02;65.24;99446.38;5062453;28;20526;-64
2023/03/31 08:30:03;;;;;;;26.15;6.25;;;;;;;15.24;64.85;99432.44;5066231;28;20064;-65
2023/03/31 08:32:31;;;;;;;26.67;5.65;;;;;;;15.06;64.62;99436.97;5068356;28;20055;-65
2023/03/31 08:34:59;;;;;;;27.55;6.53;;;;;;;15.03;64.48;99434.13;5063300;28;20071;-65
2023/03/31 08:37:27;;;;;;;33.38;6.07;;;;;;;14.96;64.75;99436.78;5062404;28;20049;-65
2023/03/31 08:39:54;;;;;;;33.13;7.13;;;;;;;15.06;64.87;99436.16;5057334;28;20053;-65
2023/03/31 08:42:55;;;;;;;26.25;5.47;;;;;;;15.19;63.93;99434.75;5066391;28;20530;-65
2023/03/31 08:45:35;;;;;;;;;;;;;;;15.17;63.72;99439.84;5039456;28;20055;-65
2023/03/31 08:48:06;;;;;;;;;;;;;;;15.26;62.90;99421.78;5060633;28;19921;-66
2023/03/31 08:50:36;;;;;;;28.65;6.50;;;;;;;15.18;63.33;99411.78;5073776;28;19954;-66
2023/03/31 08:53:12;;;;;;;26.67;6.15;;;;;;;15.07;62.87;99421.09;5066768;28;20049;-65
2023/03/31 08:55:46;;;;;;;29.40;5.90;;;;;;;15.26;62.15;99421.78;5055200;28;20063;-66
2023/03/31 08:58:26;;;;;;;32.13;6.13;;;;;;;15.19;61.49;99418.91;5058953;28;20052;-66
2023/03/31 09:00:56;;;;;;;28.17;5.95;;;;;;;15.24;62.00;99424.13;5067631;28;20056;-66
2023/03/31 09:03:30;;;;;;;31.13;6.13;;;;;;;15.25;60.43;99413.84;5069724;28;20053;-66
2023/03/31 09:06:06;;;;;;;28.05;5.50;;;;;;;15.01;60.86;99428.16;5064693;28;20052;-66
2023/03/31 09:08:36;;;;;;;23.30;5.28;;;;;;;15.20;60.69;99414.16;5072274;28;20048;-66
2023/03/31 09:11:13;;;;;;;28.83;7.65;;;;;;;15.41;59.79;99420.81;5071820;28;20610;-65
2023/03/31 09:13:49;;;;;;;27.42;5.72;;;;;;;15.64;59.07;99426.25;5064360;28;20045;-65
2023/03/31 09:16:21;;;;;;;25.20;5.72;;;;;;;15.63;58.96;99411.59;5069688;28;20146;-65
2023/03/31 09:18:49;;;;;;;21.67;5.00;;;;;;;15.57;58.30;99409.50;5074361;28;20052;-66
2023/03/31 09:21:48;;;;;;;24.13;5.45;;;;;;;15.91;57.89;99429.75;5060608;28;20415;-64
2023/03/31 09:24:23;;;;;;;26.10;4.88;;;;;;;15.79;57.94;99428.03;5068600;28;20041;-64
2023/03/31 09:27:00;;;;;;;25.92;5.30;;;;;;;15.92;57.93;99418.25;5071042;28;20047;-65
2023/03/31 09:29:33;;;;;;;22.48;5.30;;;;;;;15.83;58.14;99408.63;5068600;28;20452;-65
2023/03/31 09:32:06;;;;;;;22.83;4.85;;;;;;;15.41;58.52;99431.13;5069788;28;20036;-65
2023/03/31 09:34:33;;;;;;;31.17;5.95;;;;;;;15.36;58.67;99432.22;5072706;28;20059;-64
2023/03/31 09:37:01;;;;;;;28.52;6.03;;;;;;;15.17;59.96;99425.97;5067049;28;20044;-65
2023/03/31 09:39:28;;;;;;;28.08;5.20;;;;;;;15.29;59.69;99407.13;5068689;28;20060;-65
2023/03/31 09:41:55;;;;;;;24.98;5.40;;;;;;;15.36;59.80;99423.88;5068059;28;20044;-65
2023/03/31 09:44:41;;;;;;;21.77;5.10;;;;;;;15.65;58.61;99425.91;5061208;28;20041;-64
2023/03/31 09:47:24;;;;;;;22.90;4.72;;;;;;;15.82;57.34;99416.16;5063257;28;20115;-64
2023/03/31 09:49:51;;;;;;;24.27;5.95;;;;;;;15.90;57.00;99417.03;5071013;28;20048;-64
2023/03/31 09:52:26;;;;;;;24.73;5.57;;;;;;;15.82;56.47;99407.03;5067612;28;20415;-65
2023/03/31 09:54:55;;;;;;;24.92;4.97;;;;;;;15.65;57.01;99406.47;5061142;28;20049;-64
2023/03/31 09:57:28;;;;;;;20.98;4.53;;;;;;;15.90;56.74;99405.94;5066388;28;20044;-65
2023/03/31 10:00:15;;;;;;;23.27;5.68;;;;;;;16.19;55.88;99416.97;5063244;28;20060;-64
2023/03/31 10:02:48;;;;;;;23.35;4.40;;;;;;;16.34;55.07;99409.53;5063706;28;20048;-64
2023/03/31 10:05:29;;;;;;;21.85;4.78;;;;;;;16.21;55.55;99405.47;5045827;28;20048;-65
2023/03/31 10:08:11;;;;;;;22.95;4.93;;;;;;;16.04;55.27;99400.53;5067008;28;20048;-66
2023/03/31 10:10:44;;;;;;;19.75;5.28;;;;;;;16.18;55.01;99407.00;5064134;28;20081;-66
2023/03/31 10:13:15;;;;;;;20.05;4.53;;;;;;;15.95;55.28;99392.50;5060206;28;20445;-65
2023/03/31 10:15:43;;;;;;;22.63;4.85;;;;;;;15.87;54.69;99392.78;5065207;28;20543;-66
2023/03/31 10:18:15;;;;;;;17.13;3.92;;;;;;;15.61;55.91;99397.28;5067369;28;20056;-67
2023/03/31 10:20:49;;;;;;;20.20;4.20;;;;;;;15.58;56.28;99413.91;5074997;28;20052;-65
2023/03/31 10:23:28;;;;;;;19.52;3.83;;;;;;;15.87;55.16;99406.69;5066364;28;20037;-65
2023/03/31 10:25:55;;;;;;;21.17;3.95;;;;;;;15.79;55.85;99406.59;5072949;28;20056;-61
2023/03/31 10:28:23;;;;;;;26.50;4.28;;;;;;;16.16;55.05;99412.16;5076645;28;20061;-61
2023/03/31 10:31:02;;;;;;;16.58;4.03;;;;;;;16.19;54.31;99411.41;5068914;28;20064;-61
2023/03/31 10:33:33;;;;;;;15.43;3.05;;;;;;;15.91;53.65;99410.31;5070770;28;20052;-62
2023/03/31 10:36:07;;;;;;;19.73;4.00;;;;;;;16.07;53.91;99402.53;5070650;28;20503;-62
2023/03/31 10:38:43;;;;;;;19.60;3.80;;;;;;;16.25;52.83;99404.31;5064619;28;20060;-62
2023/03/31 10:41:11;;;;;;;15.32;3.50;;;;;;;16.32;52.57;99389.69;5070283;28;20044;-64
2023/03/31 10:43:47;;;;;;;15.52;3.75;;;;;;;15.75;53.11;99397.44;5066754;28;20051;-64
2023/03/31 10:46:14;;;;;;;22.45;4.07;;;;;;;16.02;53.38;99400.91;5052263;28;20057;-63
2023/03/31 10:48:43;;;;;;;17.85;4.10;;;;;;;16.01;53.14;99404.06;5064022;28;20056;-64
2023/03/31 10:51:27;;;;;;;17.38;3.28;;;;;;;15.81;53.32;99391.56;5064188;28;20044;-63
2023/03/31 10:53:59;;;;;;;19.80;3.80;;;;;;;15.79;53.21;99408.59;5066020;28;20049;-63
2023/03/31 10:56:42;;;;;;;15.38;4.30;;;;;;;15.95;53.40;99392.50;5064421;28;20052;-62
2023/03/31 10:59:31;;;;;;;17.02;3.60;;;;;;;16.14;52.96;99391.50;5058825;28;20389;-64
2023/03/31 11:02:21;;;;;;;21.80;4.32;;;;;;;16.19;53.17;99407.81;5067315;28;20055;-62
2023/03/31 11:04:52;;;;;;;16.40;4.22;;;;;;;16.09;53.41;99405.75;5058149;28;20052;-59
2023/03/31 11:07:28;;;;;;;;;;;;;;;16.12;53.78;99416.09;5072369;28;20407;-60
2023/03/31 11:09:56;;;;;;;15.15;3.40;;;;;;;16.24;53.43;99399.13;5069347;28;20404;-61
2023/03/31 11:12:30;;;;;;;18.83;4.97;;;;;;;16.29;53.41;99407.09;5069329;28;20041;-61
2023/03/31 11:15:30;;;;;;;17.55;3.22;;;;;;;16.37;52.32;99404.00;5077782;28;20419;-60
2023/03/31 11:17:57;;;;;;;;;;;;;;;16.35;52.75;99400.81;5068824;28;20067;-61
2023/03/31 11:20:52;;;;;;;17.15;3.50;;;;;;;16.40;52.57;99394.13;5065628;28;19928;-61
2023/03/31 11:23:38;;;;;;;17.77;4.40;;;;;;;16.26;52.41;99410.66;5062317;28;20044;-62
2023/03/31 11:26:37;;;;;;;17.20;4.43;;;;;;;16.00;53.75;99400.50;5078106;28;20055;-61
2023/03/31 11:29:22;;;;;;;17.83;3.58;;;;;;;15.98;53.64;99411.19;5065901;28;20075;-60
2023/03/31 11:31:52;;;;;;;19.83;4.10;;;;;;;16.31;53.10;99394.44;5068916;28;20049;-61
2023/03/31 11:34:38;;;;;;;;;;;;;;;16.14;52.77;99394.28;5062546;28;20052;-59
2023/03/31 11:37:51;;;;;;;15.15;3.42;;;;;;;16.19;52.43;99402.25;5066162;28;19921;-60
2023/03/31 11:40:50;;;;;;;16.88;4.13;;;;;;;16.41;51.83;99373.47;5060497;28;20815;-62
2023/03/31 11:43:32;;;;;;;16.35;4.00;;;;;;;16.35;51.98;99364.69;5066836;28;20487;-62
2023/03/31 11:46:03;;;;;;;19.23;4.30;;;;;;;16.39;51.75;99371.06;5065524;28;20053;-61
2023/03/31 11:48:31;;;;;;;17.98;4.10;;;;;;;16.18;52.30;99376.44;5068880;28;20052;-62
2023/03/31 11:51:00;;;;;;;17.38;4.50;;;;;;;16.25;52.22;99372.97;5066422;28;20055;-61